createdAt,value
2018-12-27T00:00:07.748Z,6.79
2018-12-27T00:02:36.133Z,6.78
2018-12-27T00:05:04.503Z,6.70
2018-12-27T00:07:32.875Z,6.70
2018-12-27T00:10:01.259Z,6.70
2018-12-27T00:12:29.639Z,6.68
2018-12-27T00:15:17.362Z,6.71
2018-12-27T00:17:45.731Z,6.71
2018-12-27T00:20:14.114Z,6.68
2018-12-27T00:22:42.482Z,6.64
2018-12-27T00:25:10.844Z,6.70
2018-12-27T00:27:39.218Z,6.67
2018-12-27T00:30:07.872Z,6.73
2018-12-27T00:32:36.497Z,6.64
2018-12-27T00:35:05.130Z,6.64
2018-12-27T00:37:33.766Z,6.59
2018-12-27T00:40:02.392Z,6.61
2018-12-27T00:42:31.004Z,6.56
2018-12-27T00:44:59.630Z,6.55
2018-12-27T00:47:28.305Z,6.48
2018-12-27T00:49:56.928Z,6.48
2018-12-27T00:52:25.551Z,6.43
2018-12-27T00:54:54.182Z,6.41
2018-12-27T00:57:22.815Z,6.41
2018-12-27T00:59:51.452Z,6.44
2018-12-27T01:02:20.084Z,6.42
2018-12-27T01:04:48.733Z,6.36
2018-12-27T01:07:17.362Z,6.38
2018-12-27T01:09:45.988Z,6.33
2018-12-27T01:12:14.624Z,6.36
2018-12-27T01:14:43.247Z,6.30
2018-12-27T01:17:11.889Z,6.24
2018-12-27T01:19:40.509Z,6.26
2018-12-27T01:22:09.149Z,6.26
2018-12-27T01:24:37.769Z,6.28
2018-12-27T01:27:06.390Z,6.26
2018-12-27T01:29:35.039Z,6.23
2018-12-27T01:32:03.660Z,6.20
2018-12-27T01:34:32.291Z,6.26
2018-12-27T01:37:00.985Z,6.24
2018-12-27T01:39:29.582Z,6.22
2018-12-27T01:41:58.203Z,6.23
2018-12-27T01:44:26.831Z,6.16
2018-12-27T01:46:55.463Z,6.14
2018-12-27T01:49:24.087Z,6.16
2018-12-27T01:51:52.705Z,6.12
2018-12-27T01:54:21.333Z,6.12
2018-12-27T01:56:49.960Z,6.15
2018-12-27T01:59:18.587Z,6.15
2018-12-27T02:01:47.213Z,6.16
2018-12-27T02:04:15.830Z,6.17
2018-12-27T02:06:44.469Z,6.13
2018-12-27T02:09:13.105Z,6.19
2018-12-27T02:11:41.726Z,6.17
2018-12-27T02:14:10.340Z,6.11
2018-12-27T02:16:38.961Z,6.09
2018-12-27T02:19:07.594Z,6.05
2018-12-27T02:21:36.206Z,6.00
2018-12-27T02:24:04.847Z,6.02
2018-12-27T02:26:52.712Z,5.97
2018-12-27T02:29:21.346Z,5.96
2018-12-27T02:31:49.997Z,5.97
2018-12-27T02:34:18.618Z,5.97
2018-12-27T02:36:47.232Z,5.88
2018-12-27T02:39:15.876Z,5.85
2018-12-27T02:41:44.528Z,5.89
2018-12-27T02:44:13.154Z,5.87
2018-12-27T02:46:41.795Z,5.82
2018-12-27T02:49:10.421Z,5.84
2018-12-27T02:51:39.048Z,5.80
2018-12-27T02:54:07.671Z,5.75
2018-12-27T02:56:36.286Z,5.70
2018-12-27T02:59:04.917Z,5.76
2018-12-27T03:01:33.543Z,5.70
2018-12-27T03:04:02.170Z,5.78
2018-12-27T03:06:30.807Z,5.72
2018-12-27T03:08:59.421Z,5.66
2018-12-27T03:11:28.031Z,5.65
2018-12-27T03:13:56.689Z,5.71
2018-12-27T03:16:25.344Z,5.71
2018-12-27T03:18:53.986Z,5.66
2018-12-27T03:21:22.640Z,5.67
2018-12-27T03:23:51.244Z,5.67
2018-12-27T03:26:19.876Z,5.60
2018-12-27T03:28:48.490Z,5.60
2018-12-27T03:31:17.122Z,5.57
2018-12-27T03:33:52.654Z,5.62
2018-12-27T03:36:16.114Z,5.57
2018-12-27T03:38:44.745Z,5.61
2018-12-27T03:41:13.394Z,5.53
2018-12-27T03:43:42.771Z,5.54
2018-12-27T03:46:11.395Z,5.50
2018-12-27T03:48:40.041Z,5.49
2018-12-27T03:51:08.663Z,5.50
2018-12-27T03:53:37.297Z,5.48
2018-12-27T03:56:05.939Z,5.49
2018-12-27T03:58:34.569Z,5.44
2018-12-27T04:01:03.195Z,5.37
2018-12-27T04:03:32.086Z,5.37
2018-12-27T04:06:00.721Z,5.45
2018-12-27T04:08:29.355Z,5.38
2018-12-27T04:10:57.989Z,5.35
2018-12-27T04:13:26.623Z,5.42
2018-12-27T04:15:54.985Z,5.37
2018-12-27T04:18:23.361Z,5.38
2018-12-27T04:20:51.827Z,5.39
2018-12-27T04:23:20.368Z,5.38
2018-12-27T04:25:48.822Z,5.33
2018-12-27T04:28:17.213Z,5.34
2018-12-27T04:31:18.902Z,5.38
2018-12-27T04:34:20.829Z,5.38
2018-12-27T04:37:22.852Z,5.39
2018-12-27T04:39:51.211Z,5.30
2018-12-27T04:42:19.568Z,5.33
2018-12-27T04:45:27.998Z,5.39
2018-12-27T04:47:56.400Z,5.30
2018-12-27T04:50:24.749Z,5.34
2018-12-27T04:52:53.132Z,5.35
2018-12-27T04:55:21.524Z,5.35
2018-12-27T04:57:49.910Z,5.35
2018-12-27T05:00:37.601Z,5.32
2018-12-27T05:05:46.806Z,5.32
2018-12-27T05:08:15.184Z,5.31
2018-12-27T05:10:43.550Z,5.27
2018-12-27T05:13:11.938Z,5.27
2018-12-27T05:15:40.340Z,5.35
2018-12-27T05:18:08.726Z,5.34
2018-12-27T05:20:37.107Z,5.39
2018-12-27T05:23:05.503Z,5.31
2018-12-27T05:25:33.859Z,5.34
2018-12-27T05:28:02.226Z,5.39
2018-12-27T05:30:30.630Z,5.38
2018-12-27T05:32:59.009Z,5.28
2018-12-27T05:35:27.459Z,5.34
2018-12-27T05:37:55.933Z,5.28
2018-12-27T05:40:24.290Z,5.34
2018-12-27T05:42:54.155Z,5.37
2018-12-27T05:45:22.764Z,5.37
2018-12-27T05:47:51.128Z,5.38
2018-12-27T05:50:19.486Z,5.41
2018-12-27T05:52:47.873Z,5.51
2018-12-27T05:55:35.592Z,5.43
2018-12-27T05:58:03.970Z,5.43
2018-12-27T06:00:32.347Z,5.44
2018-12-27T06:03:00.719Z,5.46
2018-12-27T06:05:29.124Z,5.38
2018-12-27T06:07:57.493Z,5.34
2018-12-27T06:10:25.914Z,5.42
2018-12-27T06:12:54.300Z,5.36
2018-12-27T06:15:22.678Z,5.44
2018-12-27T06:17:51.069Z,5.44
2018-12-27T06:20:19.494Z,5.45
2018-12-27T06:22:47.875Z,5.45
2018-12-27T06:25:16.257Z,5.45
2018-12-27T06:27:44.614Z,5.44
2018-12-27T06:30:12.973Z,5.44
2018-12-27T06:32:41.363Z,5.44
2018-12-27T06:35:09.756Z,5.41
2018-12-27T06:37:38.207Z,5.34
2018-12-27T06:40:06.584Z,5.41
2018-12-27T06:42:34.985Z,5.40
2018-12-27T06:45:03.359Z,5.40
2018-12-27T06:47:31.730Z,5.37
2018-12-27T06:50:00.149Z,5.43
2018-12-27T06:52:28.554Z,5.38
2018-12-27T06:54:56.985Z,5.40
2018-12-27T06:57:25.353Z,5.46
2018-12-27T06:59:53.734Z,5.44
2018-12-27T07:02:22.111Z,5.46
2018-12-27T07:04:50.482Z,5.47
2018-12-27T07:07:18.882Z,5.47
2018-12-27T07:09:47.260Z,5.54
2018-12-27T07:12:15.634Z,5.54
2018-12-27T07:14:44.001Z,5.47
2018-12-27T07:17:12.402Z,5.50
2018-12-27T07:19:40.767Z,5.44
2018-12-27T07:22:09.148Z,5.50
2018-12-27T07:24:37.510Z,5.44
2018-12-27T07:27:05.898Z,5.45
2018-12-27T07:29:34.256Z,5.52
2018-12-27T07:32:02.622Z,5.50
2018-12-27T07:34:31.015Z,5.54
2018-12-27T07:36:59.460Z,5.63
2018-12-27T07:39:27.831Z,5.54
2018-12-27T07:41:56.183Z,5.57
2018-12-27T07:44:24.573Z,5.62
2018-12-27T07:46:52.947Z,5.61
2018-12-27T07:49:21.322Z,5.61
2018-12-27T07:51:49.725Z,5.51
2018-12-27T07:56:57.060Z,5.48
2018-12-27T07:59:25.428Z,5.46
2018-12-27T08:01:53.813Z,5.52
2018-12-27T08:04:22.175Z,5.50
2018-12-27T08:06:50.544Z,5.52
2018-12-27T08:09:18.924Z,5.50
2018-12-27T08:11:47.291Z,5.52
2018-12-27T08:14:15.675Z,5.49
2018-12-27T08:16:44.032Z,5.58
2018-12-27T08:19:12.408Z,5.58
2018-12-27T08:21:40.871Z,5.52
2018-12-27T08:24:09.233Z,5.54
2018-12-27T08:26:37.607Z,5.82
2018-12-27T08:29:05.994Z,5.91
2018-12-27T08:31:34.374Z,5.69
2018-12-27T08:34:02.743Z,5.53
2018-12-27T08:36:31.118Z,5.53
2018-12-27T08:38:59.476Z,5.56
2018-12-27T08:41:27.847Z,5.62
2018-12-27T08:43:56.222Z,5.62
2018-12-27T08:46:24.628Z,5.58
2018-12-27T08:48:53.010Z,5.60
2018-12-27T08:51:21.771Z,5.52
2018-12-27T08:53:50.149Z,5.57
2018-12-27T08:56:18.548Z,5.56
2018-12-27T08:58:46.909Z,5.60
2018-12-27T09:01:15.294Z,5.56
2018-12-27T09:03:43.671Z,5.61
2018-12-27T09:06:12.049Z,5.59
2018-12-27T09:08:40.443Z,5.66
2018-12-27T09:11:08.817Z,5.57
2018-12-27T09:13:37.187Z,5.55
2018-12-27T09:16:05.567Z,5.60
2018-12-27T09:18:33.969Z,5.52
2018-12-27T09:21:02.373Z,5.57
2018-12-27T09:23:30.745Z,5.61
2018-12-27T09:25:59.130Z,5.50
2018-12-27T09:28:27.509Z,5.52
2018-12-27T09:30:55.880Z,5.53
2018-12-27T09:33:24.258Z,5.53
2018-12-27T09:35:52.636Z,5.54
2018-12-27T09:38:21.030Z,5.48
2018-12-27T09:40:49.384Z,5.57
2018-12-27T09:43:17.751Z,5.52
2018-12-27T09:45:46.125Z,5.52
2018-12-27T09:48:14.485Z,5.57
2018-12-27T09:50:42.867Z,5.52
2018-12-27T09:53:11.239Z,5.59
2018-12-27T09:55:39.622Z,5.54
2018-12-27T09:58:08.009Z,5.55
2018-12-27T10:00:36.396Z,5.61
2018-12-27T10:03:04.764Z,5.57
2018-12-27T10:05:33.997Z,5.54
2018-12-27T10:08:03.259Z,5.61
2018-12-27T10:10:31.638Z,5.58
2018-12-27T10:13:00.015Z,5.61
2018-12-27T10:15:30.011Z,5.67
2018-12-27T10:17:58.492Z,5.62
2018-12-27T10:20:26.873Z,5.70
2018-12-27T10:22:55.246Z,5.71
2018-12-27T10:25:23.626Z,5.72
2018-12-27T10:27:52.014Z,5.69
2018-12-27T10:30:20.376Z,5.58
2018-12-27T10:32:48.774Z,5.61
2018-12-27T10:35:17.147Z,5.63
2018-12-27T10:37:45.531Z,5.65
2018-12-27T10:40:13.916Z,5.68
2018-12-27T10:42:42.299Z,5.72
2018-12-27T10:45:10.676Z,5.71
2018-12-27T10:47:39.054Z,5.75
2018-12-27T10:50:47.461Z,5.68
2018-12-27T10:53:15.833Z,5.78
2018-12-27T10:55:44.245Z,5.73
2018-12-27T10:58:12.616Z,5.75
2018-12-27T11:00:40.985Z,5.81
2018-12-27T11:03:09.375Z,5.77
2018-12-27T11:05:37.744Z,5.79
2018-12-27T11:08:06.138Z,5.76
2018-12-27T11:10:34.508Z,5.71
2018-12-27T11:13:02.902Z,5.82
2018-12-27T11:15:31.285Z,5.86
2018-12-27T11:17:59.661Z,5.88
2018-12-27T11:20:28.042Z,5.86
2018-12-27T11:22:56.417Z,5.91
2018-12-27T11:25:24.809Z,5.88
2018-12-27T11:27:53.204Z,5.90
2018-12-27T11:30:21.568Z,5.86
2018-12-27T11:33:09.307Z,5.84
2018-12-27T11:35:37.690Z,5.84
2018-12-27T11:40:53.399Z,5.97
2018-12-27T11:43:21.776Z,6.01
2018-12-27T11:45:50.187Z,5.99
2018-12-27T11:48:18.535Z,5.97
2018-12-27T11:50:46.905Z,5.95
2018-12-27T11:53:15.290Z,6.01
2018-12-27T11:55:43.665Z,5.99
2018-12-27T11:58:12.036Z,6.05
2018-12-27T12:00:40.406Z,6.01
2018-12-27T12:03:08.786Z,6.08
2018-12-27T12:05:37.153Z,6.05
2018-12-27T12:08:05.535Z,6.04
2018-12-27T12:10:33.915Z,6.12
2018-12-27T12:13:02.285Z,6.11
2018-12-27T12:15:30.677Z,6.16
2018-12-27T12:17:59.068Z,6.18
2018-12-27T12:20:27.469Z,6.19
2018-12-27T12:28:55.761Z,6.11
2018-12-27T12:31:24.146Z,6.20
2018-12-27T12:33:52.719Z,6.10
2018-12-27T12:36:21.093Z,6.15
2018-12-27T12:38:49.469Z,6.22
2018-12-27T12:41:18.028Z,6.21
2018-12-27T12:43:46.437Z,6.15
2018-12-27T12:46:14.823Z,6.17
2018-12-27T12:48:43.254Z,6.16
2018-12-27T12:51:11.648Z,6.21
2018-12-27T12:53:40.803Z,6.17
2018-12-27T12:56:09.173Z,6.23
2018-12-27T12:58:37.552Z,6.21
2018-12-27T13:01:07.488Z,6.23
2018-12-27T13:03:36.042Z,6.13
2018-12-27T13:06:04.430Z,6.22
2018-12-27T13:08:32.792Z,6.26
2018-12-27T13:11:01.174Z,6.28
2018-12-27T13:13:29.552Z,6.26
2018-12-27T13:15:57.914Z,6.25
2018-12-27T13:18:26.303Z,6.31
2018-12-27T13:20:54.719Z,6.32
2018-12-27T13:23:23.072Z,6.36
2018-12-27T13:25:51.514Z,6.39
2018-12-27T13:28:19.824Z,6.36
2018-12-27T13:30:48.202Z,6.36
2018-12-27T13:33:16.604Z,6.38
2018-12-27T13:35:45.005Z,6.39
2018-12-27T13:38:13.375Z,6.40
2018-12-27T13:40:41.761Z,6.40
2018-12-27T13:43:10.135Z,6.68
2018-12-27T13:45:38.513Z,6.51
2018-12-27T13:48:06.907Z,6.48
2018-12-27T13:50:35.294Z,6.48
2018-12-27T13:53:04.002Z,6.42
2018-12-27T13:55:32.390Z,6.44
2018-12-27T13:58:20.094Z,6.37
2018-12-27T14:00:48.477Z,6.37
2018-12-27T14:03:16.845Z,6.34
2018-12-27T14:05:57.445Z,6.45
2018-12-27T14:08:25.822Z,6.46
2018-12-27T14:10:54.183Z,6.46
2018-12-27T14:13:22.575Z,6.43
2018-12-27T14:15:50.961Z,6.48
2018-12-27T14:18:19.359Z,6.51
2018-12-27T14:20:47.752Z,6.49
2018-12-27T14:23:16.194Z,6.47
2018-12-27T14:25:44.570Z,6.40
2018-12-27T14:28:12.954Z,6.34
2018-12-27T14:30:41.343Z,6.38
2018-12-27T14:33:09.751Z,6.39
2018-12-27T14:35:38.127Z,6.49
2018-12-27T14:38:06.517Z,6.46
2018-12-27T14:40:34.903Z,6.42
2018-12-27T14:43:03.278Z,6.41
2018-12-27T14:45:31.648Z,6.42
2018-12-27T14:48:00.033Z,6.39
2018-12-27T14:50:28.407Z,6.41
2018-12-27T14:52:56.811Z,6.50
2018-12-27T14:55:25.191Z,6.46
2018-12-27T14:57:53.563Z,6.48
2018-12-27T15:00:21.948Z,6.46
2018-12-27T15:02:50.408Z,6.51
2018-12-27T15:05:18.789Z,6.42
2018-12-27T15:07:47.151Z,6.37
2018-12-27T15:10:15.548Z,6.45
2018-12-27T15:12:43.936Z,6.45
2018-12-27T15:15:12.296Z,6.40
2018-12-27T15:17:40.680Z,6.43
2018-12-27T15:20:09.079Z,6.42
2018-12-27T15:22:37.448Z,6.42
2018-12-27T15:25:05.832Z,6.38
2018-12-27T15:27:34.289Z,6.39
2018-12-27T15:30:02.642Z,6.32
2018-12-27T15:35:11.858Z,6.28
2018-12-27T15:37:40.247Z,6.34
2018-12-27T15:40:08.636Z,6.34
2018-12-27T15:42:37.111Z,6.36
2018-12-27T15:45:39.306Z,6.38
2018-12-27T15:48:07.695Z,6.35
2018-12-27T15:53:27.787Z,6.37
2018-12-27T15:55:56.149Z,6.35
2018-12-27T15:58:24.536Z,6.29
2018-12-27T16:00:52.926Z,6.27
2018-12-27T16:03:21.366Z,6.22
2018-12-27T16:05:49.800Z,6.23
2018-12-27T16:08:18.214Z,6.22
2018-12-27T16:10:46.611Z,6.22
2018-12-27T16:13:15.009Z,6.22
2018-12-27T16:15:43.404Z,6.29
2018-12-27T16:18:11.779Z,6.26
2018-12-27T16:20:40.150Z,6.29
2018-12-27T16:23:08.529Z,6.22
2018-12-27T16:25:36.910Z,6.21
2018-12-27T16:28:05.292Z,6.24
2018-12-27T16:30:33.663Z,6.23
2018-12-27T16:33:02.051Z,6.20
2018-12-27T16:38:11.339Z,6.27
2018-12-27T16:40:39.714Z,6.27
2018-12-27T16:43:08.100Z,6.21
2018-12-27T16:45:36.492Z,6.24
2018-12-27T16:48:04.881Z,6.26
2018-12-27T16:50:33.257Z,6.26
2018-12-27T16:53:01.638Z,6.27
2018-12-27T16:55:30.020Z,6.23
2018-12-27T16:57:58.413Z,6.18
2018-12-27T17:00:26.800Z,6.17
2018-12-27T17:02:55.169Z,6.19
2018-12-27T17:05:23.573Z,6.14
2018-12-27T17:07:51.941Z,6.13
2018-12-27T17:10:20.313Z,6.22
2018-12-27T17:12:48.706Z,6.19
2018-12-27T17:15:17.074Z,6.17
2018-12-27T17:17:45.457Z,6.16
2018-12-27T17:20:13.850Z,6.18
2018-12-27T17:22:42.226Z,6.15
2018-12-27T17:25:10.603Z,6.13
2018-12-27T17:27:38.966Z,6.10
2018-12-27T17:30:47.369Z,6.14
2018-12-27T17:33:15.749Z,6.18
2018-12-27T17:35:44.120Z,6.16
2018-12-27T17:38:12.519Z,6.16
2018-12-27T17:40:40.954Z,6.12
2018-12-27T17:43:09.312Z,6.20
2018-12-27T17:45:37.708Z,6.15
2018-12-27T17:48:06.119Z,6.25
2018-12-27T17:50:34.498Z,6.32
2018-12-27T17:53:02.900Z,6.31
2018-12-27T17:55:31.271Z,6.34
2018-12-27T17:57:59.685Z,6.28
2018-12-27T18:00:28.064Z,6.29
2018-12-27T18:05:37.286Z,6.21
2018-12-27T18:08:05.674Z,6.36
2018-12-27T18:10:34.048Z,6.31
2018-12-27T18:13:02.439Z,6.29
2018-12-27T18:15:30.818Z,6.24
2018-12-27T18:17:59.221Z,6.24
2018-12-27T18:20:27.611Z,6.23
2018-12-27T18:22:55.975Z,6.27
2018-12-27T18:25:24.355Z,6.28
2018-12-27T18:27:52.716Z,6.29
2018-12-27T18:33:33.048Z,6.33
2018-12-27T18:36:01.430Z,6.27
2018-12-27T18:38:29.821Z,6.22
2018-12-27T18:40:58.203Z,6.29
2018-12-27T18:43:26.584Z,6.24
2018-12-27T18:45:55.057Z,6.20
2018-12-27T18:48:23.483Z,6.23
2018-12-27T18:50:51.860Z,6.20
2018-12-27T18:53:20.241Z,6.23
2018-12-27T18:55:48.610Z,6.29
2018-12-27T18:58:17.057Z,6.26
2018-12-27T19:00:45.450Z,6.18
2018-12-27T19:03:13.831Z,6.17
2018-12-27T19:05:42.735Z,6.20
2018-12-27T19:08:11.155Z,6.29
2018-12-27T19:10:39.530Z,6.28
2018-12-27T19:13:47.979Z,6.36
2018-12-27T19:16:16.349Z,6.33
2018-12-27T19:18:44.735Z,6.29
2018-12-27T19:21:13.115Z,6.31
2018-12-27T19:23:41.497Z,6.33
2018-12-27T19:26:09.888Z,6.37
2018-12-27T19:28:38.261Z,6.23
2018-12-27T19:31:06.656Z,6.31
2018-12-27T19:33:35.010Z,6.26
2018-12-27T19:36:03.382Z,6.27
2018-12-27T19:38:31.793Z,6.29
2018-12-27T19:41:00.187Z,6.28
2018-12-27T19:43:28.578Z,6.26
2018-12-27T19:45:56.959Z,6.25
2018-12-27T19:48:25.364Z,6.25
2018-12-27T19:50:53.743Z,6.32
2018-12-27T19:53:22.124Z,6.18
2018-12-27T19:55:50.498Z,6.22
2018-12-27T19:58:18.889Z,6.33
2018-12-27T20:00:47.268Z,6.22
2018-12-27T20:03:15.659Z,6.27
2018-12-27T20:05:44.046Z,6.32
2018-12-27T20:08:12.448Z,6.27
2018-12-27T20:10:40.833Z,6.24
2018-12-27T20:13:09.234Z,6.27
2018-12-27T20:15:37.634Z,6.25
2018-12-27T20:18:06.050Z,6.31
2018-12-27T20:20:53.777Z,6.33
2018-12-27T20:23:22.172Z,6.33
2018-12-27T20:25:50.551Z,6.33
2018-12-27T20:28:18.961Z,6.34
2018-12-27T20:30:47.345Z,6.35
2018-12-27T20:33:15.710Z,6.35
2018-12-27T20:35:44.108Z,6.34
2018-12-27T20:38:12.489Z,6.29
2018-12-27T20:40:40.890Z,6.26
2018-12-27T20:43:09.274Z,6.26
2018-12-27T20:45:37.632Z,6.30
2018-12-27T20:48:06.014Z,6.27
2018-12-27T20:50:34.375Z,6.34
2018-12-27T20:53:02.753Z,6.31
2018-12-27T20:55:31.128Z,6.29
2018-12-27T20:57:59.512Z,6.31
2018-12-27T21:00:28.701Z,6.33
2018-12-27T21:02:57.993Z,6.39
2018-12-27T21:05:26.389Z,6.30
2018-12-27T21:07:54.767Z,6.35
2018-12-27T21:10:23.179Z,6.32
2018-12-27T21:12:51.575Z,6.28
2018-12-27T21:15:19.997Z,6.25
2018-12-27T21:17:48.390Z,6.27
2018-12-27T21:20:16.809Z,6.24
2018-12-27T21:22:45.233Z,6.24
2018-12-27T21:25:13.628Z,6.35
2018-12-27T21:27:42.036Z,6.34
2018-12-27T21:30:10.424Z,6.38
2018-12-27T21:32:38.844Z,6.42
2018-12-27T21:37:56.196Z,6.39
2018-12-27T21:40:24.567Z,6.35
2018-12-27T21:42:52.962Z,6.32
2018-12-27T21:45:21.393Z,6.34
2018-12-27T21:47:49.780Z,6.37
2018-12-27T21:50:18.269Z,6.33
2018-12-27T21:52:46.651Z,6.36
2018-12-27T21:55:15.021Z,6.35
2018-12-27T21:57:43.420Z,6.38
2018-12-27T22:00:11.807Z,6.39
2018-12-27T22:02:40.195Z,6.39
2018-12-27T22:05:08.570Z,6.35
2018-12-27T22:07:36.945Z,6.36
2018-12-27T22:10:38.607Z,6.40
2018-12-27T22:13:07.031Z,6.33
2018-12-27T22:15:35.414Z,6.31
2018-12-27T22:18:03.809Z,6.26
2018-12-27T22:20:32.214Z,6.27
2018-12-27T22:23:00.595Z,6.31
2018-12-27T22:25:28.985Z,6.34
2018-12-27T22:28:16.712Z,6.33
2018-12-27T22:30:45.094Z,6.33
2018-12-27T22:33:13.469Z,6.29
2018-12-27T22:35:41.861Z,6.26
2018-12-27T22:38:10.243Z,6.20
2018-12-27T22:40:38.615Z,6.20
2018-12-27T22:43:07.000Z,6.27
2018-12-27T22:45:35.382Z,6.17
2018-12-27T22:48:03.772Z,6.25
2018-12-27T22:50:32.149Z,6.21
2018-12-27T22:53:00.523Z,6.23
2018-12-27T22:55:29.897Z,6.17
2018-12-27T22:57:58.258Z,6.19
2018-12-27T23:01:06.665Z,6.20
2018-12-27T23:03:35.073Z,6.19
2018-12-27T23:06:03.434Z,6.17
2018-12-27T23:08:31.799Z,6.23
2018-12-27T23:11:00.180Z,6.19
2018-12-27T23:13:28.552Z,6.19
2018-12-27T23:15:56.951Z,6.25
2018-12-27T23:18:25.319Z,6.22
2018-12-27T23:20:53.701Z,6.19
2018-12-27T23:23:22.109Z,6.19
2018-12-27T23:25:50.468Z,6.20
2018-12-27T23:28:18.856Z,6.21
2018-12-27T23:30:47.220Z,6.23
2018-12-27T23:33:15.613Z,6.24
2018-12-27T23:35:43.990Z,6.22
2018-12-27T23:38:12.373Z,6.27
2018-12-27T23:40:40.758Z,6.23
2018-12-27T23:43:09.170Z,6.25
2018-12-27T23:45:37.538Z,6.26
2018-12-27T23:48:05.940Z,6.30
2018-12-27T23:50:34.326Z,6.31
2018-12-27T23:53:02.696Z,6.36
2018-12-27T23:55:31.085Z,6.31
2018-12-27T23:57:59.466Z,6.36
